createdAt,value
2022-07-26T00:01:18.410Z,63.11
2022-07-26T00:03:46.672Z,61.68
2022-07-26T00:06:15.149Z,61.97
2022-07-26T00:08:44.122Z,61.98
2022-07-26T00:11:12.473Z,61.77
2022-07-26T00:13:40.445Z,61.93
2022-07-26T00:16:10.270Z,61.67
2022-07-26T00:18:38.456Z,61.27
2022-07-26T00:21:07.189Z,62.28
2022-07-26T00:23:35.154Z,62.48
2022-07-26T00:26:03.382Z,61.79
2022-07-26T00:28:31.479Z,62.59
2022-07-26T00:30:59.719Z,62.48
2022-07-26T00:33:29.151Z,62.72
2022-07-26T00:35:57.391Z,63.34
2022-07-26T00:38:25.769Z,63.28
2022-07-26T00:40:54.396Z,63.72
2022-07-26T00:43:22.535Z,64.30
2022-07-26T00:45:51.933Z,64.29
2022-07-26T00:48:20.103Z,64.88
2022-07-26T00:50:49.612Z,64.72
2022-07-26T00:53:20.870Z,64.61
2022-07-26T00:55:49.682Z,64.42
2022-07-26T00:58:17.980Z,65.21
2022-07-26T01:00:46.272Z,64.39
2022-07-26T01:03:14.527Z,64.82
2022-07-26T01:05:42.876Z,64.72
2022-07-26T01:08:12.551Z,64.22
2022-07-26T01:10:40.481Z,65.26
2022-07-26T01:13:09.501Z,65.57
2022-07-26T01:15:37.880Z,66.20
2022-07-26T01:18:05.973Z,66.19
2022-07-26T01:20:33.893Z,65.71
2022-07-26T01:23:03.554Z,65.74
2022-07-26T01:25:32.942Z,66.41
2022-07-26T01:28:11.679Z,66.44
2022-07-26T01:30:49.269Z,68.11
2022-07-26T01:33:17.326Z,68.97
2022-07-26T01:35:45.985Z,68.35
2022-07-26T01:38:15.732Z,68.54
2022-07-26T01:40:43.801Z,68.95
2022-07-26T01:43:11.728Z,68.93
2022-07-26T01:45:39.912Z,69.01
2022-07-26T01:48:08.837Z,69.62
2022-07-26T01:50:37.469Z,69.42
2022-07-26T01:53:06.092Z,69.13
2022-07-26T01:55:36.405Z,69.86
2022-07-26T01:58:05.224Z,70.17
2022-07-26T02:00:34.219Z,69.83
2022-07-26T02:03:02.458Z,70.79
2022-07-26T02:05:30.748Z,70.83
2022-07-26T02:07:58.856Z,71.06
2022-07-26T02:10:48.659Z,70.58
2022-07-26T02:13:18.654Z,71.95
2022-07-26T02:15:47.101Z,71.64
2022-07-26T02:18:15.459Z,72.04
2022-07-26T02:20:43.450Z,72.16
2022-07-26T02:23:11.513Z,72.13
2022-07-26T02:25:39.694Z,72.46
2022-07-26T02:28:08.262Z,72.83
2022-07-26T02:30:38.344Z,73.44
2022-07-26T02:33:07.735Z,73.19
2022-07-26T02:35:36.222Z,74.35
2022-07-26T02:38:05.932Z,73.50
2022-07-26T02:40:35.205Z,73.65
2022-07-26T02:43:03.407Z,73.75
2022-07-26T02:45:31.764Z,74.02
2022-07-26T02:48:02.256Z,73.53
2022-07-26T02:50:30.895Z,73.98
2022-07-26T02:52:59.019Z,74.87
2022-07-26T02:55:27.894Z,74.74
2022-07-26T02:57:56.652Z,75.69
2022-07-26T03:00:26.950Z,76.67
2022-07-26T03:02:54.877Z,75.86
2022-07-26T03:05:24.418Z,75.69
2022-07-26T03:07:52.417Z,76.23
2022-07-26T03:10:20.671Z,77.81
2022-07-26T03:12:49.129Z,77.24
2022-07-26T03:15:17.111Z,77.43
2022-07-26T03:17:45.081Z,76.98
2022-07-26T03:20:14.275Z,77.54
2022-07-26T03:22:43.976Z,77.36
2022-07-26T03:25:12.381Z,77.65
2022-07-26T03:27:40.353Z,77.57
2022-07-26T03:30:09.920Z,78.20
2022-07-26T03:32:38.140Z,78.47
2022-07-26T03:35:07.034Z,78.26
2022-07-26T03:37:44.766Z,78.42
2022-07-26T03:40:17.203Z,78.49
2022-07-26T03:42:46.016Z,77.68
2022-07-26T03:45:14.687Z,76.72
2022-07-26T03:47:42.992Z,76.60
2022-07-26T03:50:13.704Z,77.41
2022-07-26T03:52:42.189Z,77.61
2022-07-26T03:55:24.943Z,77.38
2022-07-26T03:57:54.758Z,76.81
2022-07-26T04:00:22.836Z,77.13
2022-07-26T04:02:50.893Z,76.80
2022-07-26T04:05:23.510Z,78.01
2022-07-26T04:07:53.350Z,77.42
2022-07-26T04:10:22.758Z,77.76
2022-07-26T04:12:51.006Z,77.45
2022-07-26T04:15:21.421Z,77.55
2022-07-26T04:17:49.820Z,77.65
2022-07-26T04:20:18.514Z,78.28
2022-07-26T04:22:46.545Z,79.48
2022-07-26T04:25:14.855Z,79.86
2022-07-26T04:27:42.982Z,79.14
2022-07-26T04:30:15.164Z,78.66
2022-07-26T04:32:46.707Z,79.47
2022-07-26T04:35:16.465Z,80.00
2022-07-26T04:37:45.657Z,80.13
2022-07-26T04:40:21.402Z,80.16
2022-07-26T04:42:50.408Z,79.89
2022-07-26T04:45:18.903Z,80.31
2022-07-26T04:47:50.945Z,82.21
2022-07-26T04:50:19.776Z,84.94
2022-07-26T04:52:47.984Z,87.12
2022-07-26T04:55:16.187Z,89.72
2022-07-26T04:57:44.365Z,90.75
2022-07-26T05:00:22.932Z,94.42
2022-07-26T05:02:54.575Z,96.33
2022-07-26T05:05:23.437Z,97.12
2022-07-26T05:07:55.283Z,100.00
2022-07-26T05:10:29.342Z,98.45
2022-07-26T05:12:57.387Z,96.28
2022-07-26T05:15:26.242Z,95.41
2022-07-26T05:18:07.008Z,96.07
2022-07-26T05:20:36.154Z,95.53
2022-07-26T05:23:04.198Z,97.53
2022-07-26T05:25:32.333Z,96.54
2022-07-26T05:28:00.494Z,97.67
2022-07-26T05:30:28.862Z,97.59
2022-07-26T05:32:57.201Z,95.52
2022-07-26T05:35:26.917Z,97.52
2022-07-26T05:37:55.091Z,94.32
2022-07-26T05:40:23.850Z,92.83
2022-07-26T05:42:51.974Z,93.81
2022-07-26T05:45:20.018Z,91.83
2022-07-26T05:47:51.160Z,90.82
2022-07-26T05:50:19.887Z,93.91
2022-07-26T05:52:49.656Z,92.52
2022-07-26T05:55:17.681Z,93.19
2022-07-26T05:57:49.647Z,89.34
2022-07-26T06:00:18.599Z,91.17
2022-07-26T06:02:46.708Z,89.97
2022-07-26T06:05:15.851Z,89.49
2022-07-26T06:07:44.133Z,89.06
2022-07-26T06:10:13.755Z,89.50
2022-07-26T06:12:42.766Z,89.78
2022-07-26T06:15:15.564Z,88.33
2022-07-26T06:17:44.196Z,88.78
2022-07-26T06:20:13.155Z,83.80
2022-07-26T06:22:41.101Z,83.38
2022-07-26T06:25:09.753Z,83.65
2022-07-26T06:27:39.174Z,85.78
2022-07-26T06:30:09.246Z,84.07
2022-07-26T06:32:37.479Z,84.78
2022-07-26T06:35:06.548Z,86.57
2022-07-26T06:37:37.690Z,85.00
2022-07-26T06:40:09.375Z,84.12
2022-07-26T06:42:39.609Z,81.88
2022-07-26T06:45:08.968Z,80.86
2022-07-26T06:47:36.899Z,78.24
2022-07-26T06:50:05.799Z,81.11
2022-07-26T06:52:34.045Z,79.94
2022-07-26T06:55:02.495Z,77.71
2022-07-26T06:57:31.783Z,79.40
2022-07-26T07:00:01.230Z,80.11
2022-07-26T07:02:29.235Z,80.58
2022-07-26T07:04:57.601Z,80.41
2022-07-26T07:07:26.747Z,79.91
2022-07-26T07:09:57.097Z,77.54
2022-07-26T07:12:26.581Z,76.90
2022-07-26T07:14:54.849Z,77.07
2022-07-26T07:17:24.525Z,77.82
2022-07-26T07:19:52.559Z,75.42
2022-07-26T07:22:20.710Z,74.79
2022-07-26T07:24:48.886Z,74.43
2022-07-26T07:27:17.515Z,74.17
2022-07-26T07:29:45.660Z,72.93
2022-07-26T07:32:15.942Z,72.10
2022-07-26T07:34:48.741Z,70.21
2022-07-26T07:37:17.331Z,70.68
2022-07-26T07:39:48.684Z,71.53
2022-07-26T07:42:18.386Z,70.81
2022-07-26T07:44:46.589Z,71.25
2022-07-26T07:47:15.044Z,70.87
2022-07-26T07:49:43.025Z,71.60
2022-07-26T07:52:12.443Z,72.38
2022-07-26T07:54:40.748Z,72.94
2022-07-26T07:57:10.983Z,71.35
2022-07-26T07:59:42.736Z,68.91
2022-07-26T08:02:12.828Z,69.49
2022-07-26T08:04:40.793Z,68.91
2022-07-26T08:07:08.742Z,68.21
2022-07-26T08:09:38.188Z,67.02
2022-07-26T08:12:11.643Z,67.19
2022-07-26T08:14:39.781Z,68.29
2022-07-26T08:17:09.527Z,68.83
2022-07-26T08:19:42.244Z,70.13
2022-07-26T08:22:11.292Z,68.13
2022-07-26T08:24:41.300Z,66.13
2022-07-26T08:27:09.498Z,65.97
2022-07-26T08:29:37.500Z,65.87
2022-07-26T08:32:07.759Z,66.77
2022-07-26T08:34:36.127Z,67.49
2022-07-26T08:37:17.042Z,68.74
2022-07-26T08:39:48.410Z,70.10
2022-07-26T08:42:17.498Z,70.94
2022-07-26T08:44:52.469Z,70.14
2022-07-26T08:47:35.431Z,70.09
2022-07-26T08:50:09.470Z,69.22
2022-07-26T08:52:40.701Z,69.02
2022-07-26T08:55:11.690Z,67.28
2022-07-26T08:57:39.630Z,67.55
2022-07-26T09:00:24.909Z,69.24
2022-07-26T09:02:53.563Z,70.79
2022-07-26T09:05:27.192Z,70.33
2022-07-26T09:07:55.262Z,69.81
2022-07-26T09:10:24.953Z,69.99
2022-07-26T09:12:57.265Z,67.42
2022-07-26T09:15:27.566Z,67.62
2022-07-26T09:17:57.412Z,67.22
2022-07-26T09:20:28.038Z,67.02
2022-07-26T09:23:03.792Z,64.57
2022-07-26T09:25:35.992Z,64.57
2022-07-26T09:28:05.835Z,63.66
2022-07-26T09:30:34.415Z,63.27
2022-07-26T09:33:04.828Z,64.25
2022-07-26T09:35:52.157Z,62.57
2022-07-26T09:38:21.060Z,62.36
2022-07-26T09:40:51.688Z,61.75
2022-07-26T09:43:24.612Z,63.30
2022-07-26T09:46:08.378Z,63.32
2022-07-26T09:49:09.339Z,63.77
2022-07-26T09:51:39.210Z,64.61
2022-07-26T09:54:07.434Z,65.24
2022-07-26T09:56:46.288Z,66.41
2022-07-26T09:59:15.804Z,71.09
2022-07-26T10:01:44.403Z,72.43
2022-07-26T10:04:13.833Z,74.51
2022-07-26T10:06:42.902Z,75.20
2022-07-26T10:09:12.158Z,76.29
2022-07-26T10:11:47.143Z,75.90
2022-07-26T10:14:41.367Z,78.09
2022-07-26T10:17:46.137Z,77.70
2022-07-26T10:20:43.989Z,79.79
2022-07-26T10:23:41.750Z,81.25
2022-07-26T10:26:13.146Z,82.05
2022-07-26T10:28:43.281Z,80.75
2022-07-26T10:31:30.860Z,78.72
2022-07-26T10:34:00.997Z,78.43
2022-07-26T10:36:33.521Z,77.54
2022-07-26T10:39:24.870Z,79.08
2022-07-26T10:42:00.141Z,80.04
2022-07-26T10:44:31.586Z,80.91
2022-07-26T10:47:05.616Z,79.81
2022-07-26T10:49:36.396Z,80.15
2022-07-26T10:52:23.367Z,78.13
2022-07-26T10:55:12.421Z,79.92
2022-07-26T10:57:42.480Z,80.37
2022-07-26T11:00:21.619Z,81.02
2022-07-26T11:02:55.171Z,82.55
2022-07-26T11:05:28.908Z,85.18
2022-07-26T11:08:01.682Z,88.15
2022-07-26T11:10:33.350Z,86.30
2022-07-26T11:13:10.670Z,87.11
2022-07-26T11:15:42.137Z,86.83
2022-07-26T11:18:12.914Z,87.78
2022-07-26T11:20:42.060Z,87.25
2022-07-26T11:23:28.099Z,87.53
2022-07-26T11:26:13.944Z,84.23
2022-07-26T11:28:57.525Z,86.10
2022-07-26T11:31:50.652Z,83.37
2022-07-26T11:34:25.858Z,83.07
2022-07-26T11:36:56.833Z,82.98
2022-07-26T11:39:27.090Z,86.79
2022-07-26T11:41:58.691Z,89.33
2022-07-26T11:44:27.143Z,87.81
2022-07-26T11:46:57.967Z,88.78
2022-07-26T11:50:00.566Z,86.27
2022-07-26T11:52:21.257Z,86.77
2022-07-26T11:54:54.500Z,86.57
2022-07-26T11:57:22.862Z,88.83
2022-07-26T11:59:51.659Z,87.75
2022-07-26T12:02:23.597Z,87.38
2022-07-26T12:05:16.047Z,87.78
2022-07-26T12:07:55.377Z,88.82
2022-07-26T12:10:24.349Z,87.81
2022-07-26T12:13:07.956Z,88.15
2022-07-26T12:15:46.051Z,86.39
2022-07-26T12:18:23.470Z,89.34
2022-07-26T12:21:04.107Z,88.17
2022-07-26T12:23:42.708Z,88.53
2022-07-26T12:26:24.876Z,87.73
2022-07-26T12:28:53.819Z,87.90
2022-07-26T12:31:30.055Z,84.63
2022-07-26T12:34:00.097Z,84.81
2022-07-26T12:36:30.233Z,83.10
2022-07-26T12:39:01.057Z,82.98
2022-07-26T12:41:34.335Z,80.55
2022-07-26T12:44:03.126Z,81.33
2022-07-26T12:46:33.821Z,82.69
2022-07-26T12:49:04.905Z,81.23
2022-07-26T12:51:33.512Z,78.74
2022-07-26T12:54:02.011Z,78.17
2022-07-26T12:56:30.394Z,78.22
2022-07-26T12:59:01.399Z,78.70
2022-07-26T13:01:31.687Z,80.26
2022-07-26T13:04:00.169Z,80.17
2022-07-26T13:06:29.667Z,80.82
2022-07-26T13:08:57.793Z,82.34
2022-07-26T13:11:26.834Z,82.81
2022-07-26T13:13:55.794Z,83.50
2022-07-26T13:16:24.296Z,82.48
2022-07-26T13:18:52.771Z,90.61
2022-07-26T13:21:20.904Z,95.96
2022-07-26T13:23:50.375Z,99.09
2022-07-26T13:26:18.366Z,98.22
2022-07-26T13:28:49.808Z,100.00
2022-07-26T13:31:18.769Z,96.88
2022-07-26T13:33:47.264Z,97.21
2022-07-26T13:36:15.207Z,99.65
2022-07-26T13:38:43.338Z,99.31
2022-07-26T13:41:12.797Z,100.00
2022-07-26T13:43:40.848Z,100.00
2022-07-26T13:46:08.982Z,100.00
2022-07-26T13:48:37.339Z,100.00
2022-07-26T13:51:06.104Z,100.00
2022-07-26T13:53:34.206Z,100.00
2022-07-26T13:56:02.253Z,100.00
2022-07-26T13:58:32.991Z,100.00
2022-07-26T14:01:02.873Z,100.00
2022-07-26T14:03:35.315Z,100.00
2022-07-26T14:06:03.882Z,100.00
2022-07-26T14:08:31.913Z,100.00
2022-07-26T14:11:00.329Z,100.00
2022-07-26T14:13:28.576Z,100.00
2022-07-26T14:15:58.091Z,100.00
2022-07-26T14:18:26.267Z,100.00
2022-07-26T14:20:54.241Z,100.00
2022-07-26T14:23:22.563Z,100.00
2022-07-26T14:25:50.569Z,100.00
2022-07-26T14:28:18.539Z,100.00
2022-07-26T14:30:46.697Z,100.00
2022-07-26T14:33:16.399Z,100.00
2022-07-26T14:35:45.082Z,100.00
2022-07-26T14:38:16.964Z,100.00
2022-07-26T14:40:48.975Z,100.00
2022-07-26T14:43:17.158Z,100.00
2022-07-26T14:45:48.103Z,100.00
2022-07-26T14:48:37.644Z,100.00
2022-07-26T14:51:09.542Z,100.00
2022-07-26T14:53:38.095Z,100.00
2022-07-26T14:56:06.545Z,100.00
2022-07-26T14:58:34.581Z,100.00
2022-07-26T15:01:03.005Z,100.00
2022-07-26T15:03:34.218Z,100.00
2022-07-26T15:06:02.638Z,100.00
2022-07-26T15:08:30.687Z,100.00
2022-07-26T15:10:58.827Z,100.00
2022-07-26T15:13:27.285Z,100.00
2022-07-26T15:15:56.426Z,100.00
2022-07-26T15:18:24.579Z,100.00
2022-07-26T15:20:54.035Z,100.00
2022-07-26T15:23:22.175Z,100.00
2022-07-26T15:25:50.634Z,100.00
2022-07-26T15:28:19.754Z,100.00
2022-07-26T15:30:47.835Z,100.00
2022-07-26T15:33:15.845Z,100.00
2022-07-26T15:35:43.885Z,100.00
2022-07-26T15:38:13.370Z,100.00
2022-07-26T15:40:41.524Z,100.00
2022-07-26T15:43:09.889Z,100.00
2022-07-26T15:45:41.070Z,100.00
2022-07-26T15:48:16.034Z,100.00
2022-07-26T15:50:46.456Z,100.00
2022-07-26T15:53:17.841Z,100.00
2022-07-26T15:55:45.935Z,100.00
2022-07-26T15:58:14.678Z,100.00
2022-07-26T16:00:44.128Z,100.00
2022-07-26T16:03:12.919Z,100.00
2022-07-26T16:05:40.987Z,100.00
2022-07-26T16:08:09.106Z,100.00
2022-07-26T16:10:38.673Z,100.00
2022-07-26T16:13:06.947Z,100.00
2022-07-26T16:15:35.140Z,100.00
2022-07-26T16:18:06.509Z,100.00
2022-07-26T16:20:34.764Z,100.00
2022-07-26T16:23:02.993Z,100.00
2022-07-26T16:25:31.006Z,100.00
2022-07-26T16:28:00.875Z,100.00
2022-07-26T16:30:29.077Z,100.00
2022-07-26T16:32:57.281Z,100.00
2022-07-26T16:35:26.468Z,100.00
2022-07-26T16:37:54.456Z,100.00
2022-07-26T16:40:22.671Z,100.00
2022-07-26T16:42:50.680Z,100.00
2022-07-26T16:45:20.493Z,100.00
2022-07-26T16:47:48.702Z,100.00
2022-07-26T16:50:27.258Z,100.00
2022-07-26T16:52:56.331Z,100.00
2022-07-26T16:55:24.659Z,100.00
2022-07-26T16:57:52.569Z,100.00
2022-07-26T17:00:22.376Z,100.00
2022-07-26T17:02:50.759Z,100.00
2022-07-26T17:05:19.001Z,100.00
2022-07-26T17:07:47.076Z,100.00
2022-07-26T17:10:15.155Z,100.00
2022-07-26T17:12:43.663Z,100.00
2022-07-26T17:15:12.973Z,100.00
2022-07-26T17:17:46.904Z,100.00
2022-07-26T17:20:16.879Z,100.00
2022-07-26T17:22:44.924Z,100.00
2022-07-26T17:25:13.095Z,100.00
2022-07-26T17:27:41.488Z,100.00
2022-07-26T17:30:10.791Z,100.00
2022-07-26T17:32:39.326Z,100.00
2022-07-26T17:35:10.378Z,100.00
2022-07-26T17:37:38.555Z,100.00
2022-07-26T17:40:09.623Z,100.00
2022-07-26T17:42:38.216Z,100.00
2022-07-26T17:45:08.294Z,100.00
2022-07-26T17:47:36.620Z,100.00
2022-07-26T17:50:35.136Z,100.00
2022-07-26T17:52:56.775Z,100.00
2022-07-26T17:55:25.392Z,100.00
2022-07-26T17:57:53.686Z,100.00
2022-07-26T18:00:23.311Z,100.00
2022-07-26T18:02:55.111Z,100.00
2022-07-26T18:05:27.286Z,100.00
2022-07-26T18:08:02.170Z,100.00
2022-07-26T18:10:30.163Z,100.00
2022-07-26T18:12:58.171Z,100.00
2022-07-26T18:15:26.341Z,100.00
2022-07-26T18:17:54.493Z,100.00
2022-07-26T18:20:24.423Z,100.00
2022-07-26T18:22:53.746Z,100.00
2022-07-26T18:25:23.466Z,100.00
2022-07-26T18:27:51.579Z,100.00
2022-07-26T18:30:19.585Z,100.00
2022-07-26T18:32:47.655Z,100.00
2022-07-26T18:35:15.744Z,100.00
2022-07-26T18:37:44.037Z,100.00
2022-07-26T18:40:12.414Z,100.00
2022-07-26T18:42:41.904Z,100.00
2022-07-26T18:45:10.671Z,100.00
2022-07-26T18:47:38.699Z,100.00
2022-07-26T18:50:08.178Z,100.00
2022-07-26T18:52:36.915Z,100.00
2022-07-26T18:55:07.702Z,100.00
2022-07-26T18:57:36.590Z,100.00
2022-07-26T19:00:08.643Z,100.00
2022-07-26T19:02:36.745Z,100.00
2022-07-26T19:05:06.042Z,100.00
2022-07-26T19:07:34.543Z,100.00
2022-07-26T19:10:02.601Z,100.00
2022-07-26T19:12:30.844Z,100.00
2022-07-26T19:14:59.997Z,100.00
2022-07-26T19:17:31.706Z,100.00
2022-07-26T19:20:01.318Z,100.00
2022-07-26T19:22:30.467Z,100.00
2022-07-26T19:24:58.580Z,100.00
2022-07-26T19:27:27.891Z,100.00
2022-07-26T19:29:57.050Z,100.00
2022-07-26T19:32:29.062Z,100.00
2022-07-26T19:35:01.405Z,100.00
2022-07-26T19:37:29.736Z,100.00
2022-07-26T19:40:00.678Z,100.00
2022-07-26T19:42:31.030Z,100.00
2022-07-26T19:44:59.756Z,100.00
2022-07-26T19:47:29.765Z,100.00
2022-07-26T19:49:58.826Z,100.00
2022-07-26T19:52:28.946Z,100.00
2022-07-26T19:54:57.265Z,100.00
2022-07-26T19:57:25.339Z,100.00
2022-07-26T19:59:54.337Z,100.00
2022-07-26T20:02:22.900Z,100.00
2022-07-26T20:04:51.275Z,100.00
2022-07-26T20:07:20.607Z,100.00
2022-07-26T20:09:51.296Z,100.00
2022-07-26T20:12:20.588Z,100.00
2022-07-26T20:14:48.854Z,100.00
2022-07-26T20:17:17.442Z,100.00
2022-07-26T20:19:45.773Z,100.00
2022-07-26T20:22:14.114Z,100.00
2022-07-26T20:24:42.266Z,100.00
2022-07-26T20:27:12.076Z,100.00
2022-07-26T20:29:40.443Z,100.00
2022-07-26T20:32:08.884Z,100.00
2022-07-26T20:34:37.103Z,100.00
2022-07-26T20:37:05.391Z,100.00
2022-07-26T20:39:34.838Z,100.00
2022-07-26T20:42:03.895Z,100.00
2022-07-26T20:44:39.623Z,100.00
2022-07-26T20:47:14.389Z,100.00
2022-07-26T20:49:42.897Z,100.00
2022-07-26T20:52:11.172Z,100.00
2022-07-26T20:54:39.229Z,100.00
2022-07-26T20:57:07.488Z,100.00
2022-07-26T20:59:38.400Z,100.00
2022-07-26T21:02:06.950Z,100.00
2022-07-26T21:04:35.024Z,100.00
2022-07-26T21:07:03.282Z,100.00
2022-07-26T21:09:31.290Z,100.00
2022-07-26T21:11:59.391Z,100.00
2022-07-26T21:14:27.614Z,100.00
2022-07-26T21:16:57.182Z,100.00
2022-07-26T21:19:25.335Z,100.00
2022-07-26T21:21:54.612Z,100.00
2022-07-26T21:24:22.658Z,99.29
2022-07-26T21:26:51.025Z,95.60
2022-07-26T21:29:19.043Z,88.63
2022-07-26T21:31:47.149Z,86.76
2022-07-26T21:34:16.965Z,85.36
2022-07-26T21:36:45.015Z,85.79
2022-07-26T21:39:14.019Z,86.81
2022-07-26T21:41:42.545Z,88.83
2022-07-26T21:44:10.805Z,89.45
2022-07-26T21:46:39.203Z,89.69
2022-07-26T21:49:07.632Z,89.60
2022-07-26T21:51:37.306Z,91.54
2022-07-26T21:54:05.370Z,91.66
2022-07-26T21:56:33.892Z,92.45
2022-07-26T21:59:02.102Z,91.26
2022-07-26T22:01:30.192Z,92.69
2022-07-26T22:03:58.369Z,92.93
2022-07-26T22:06:26.507Z,94.10
2022-07-26T22:08:56.170Z,94.51
2022-07-26T22:11:24.544Z,95.98
2022-07-26T22:13:52.973Z,96.10
2022-07-26T22:16:21.007Z,95.83
2022-07-26T22:18:49.383Z,95.66
2022-07-26T22:21:17.398Z,96.42
2022-07-26T22:23:45.817Z,97.33
2022-07-26T22:26:15.578Z,97.53
2022-07-26T22:28:43.567Z,98.72
2022-07-26T22:31:11.724Z,99.17
2022-07-26T22:33:39.747Z,99.12
2022-07-26T22:36:09.572Z,98.09
2022-07-26T22:38:37.773Z,96.88
2022-07-26T22:41:05.727Z,99.01
2022-07-26T22:43:35.288Z,98.49
2022-07-26T22:46:03.360Z,99.22
2022-07-26T22:48:33.087Z,98.32
2022-07-26T22:51:04.101Z,98.35
2022-07-26T22:53:32.325Z,97.89
2022-07-26T22:56:00.296Z,98.83
2022-07-26T22:58:28.389Z,99.02
2022-07-26T23:00:58.173Z,97.48
2022-07-26T23:03:26.209Z,97.49
2022-07-26T23:05:56.814Z,96.75
2022-07-26T23:11:12.707Z,95.15
2022-07-26T23:13:41.007Z,92.87
2022-07-26T23:16:10.425Z,91.94
2022-07-26T23:18:38.830Z,91.73
2022-07-26T23:21:07.320Z,91.08
2022-07-26T23:23:35.334Z,89.98
2022-07-26T23:26:03.515Z,89.78
2022-07-26T23:28:35.887Z,88.70
2022-07-26T23:31:19.951Z,87.94
2022-07-26T23:33:51.612Z,89.50
2022-07-26T23:36:23.889Z,88.11
2022-07-26T23:38:52.096Z,88.59
2022-07-26T23:41:20.238Z,88.08
2022-07-26T23:43:48.538Z,88.55
2022-07-26T23:46:18.594Z,88.90
2022-07-26T23:48:47.170Z,88.88
2022-07-26T23:51:15.531Z,88.33
2022-07-26T23:53:43.715Z,87.63
2022-07-26T23:56:12.043Z,87.94
2022-07-26T23:58:40.059Z,86.46
